sensor_id;sensor_type;location;lat;lon;timestamp;P1;durP1;ratioP1;P2;durP2;ratioP2
53505;SDS011;39388;50.936;6.848;2022-08-19T00:00:13;7.85;;;6.13;;
53505;SDS011;39388;50.936;6.848;2022-08-19T00:05:16;6.35;;;5.75;;
53505;SDS011;39388;50.936;6.848;2022-08-19T00:07:49;7.60;;;5.50;;
53505;SDS011;39388;50.936;6.848;2022-08-19T00:12:51;7.22;;;6.00;;
53505;SDS011;39388;50.936;6.848;2022-08-19T00:15:22;8.40;;;6.53;;
53505;SDS011;39388;50.936;6.848;2022-08-19T00:17:52;7.40;;;6.03;;
53505;SDS011;39388;50.936;6.848;2022-08-19T00:20:24;7.27;;;6.30;;
53505;SDS011;39388;50.936;6.848;2022-08-19T00:22:54;6.90;;;6.18;;
53505;SDS011;39388;50.936;6.848;2022-08-19T00:25:25;7.60;;;6.68;;
53505;SDS011;39388;50.936;6.848;2022-08-19T00:27:55;10.32;;;6.00;;
53505;SDS011;39388;50.936;6.848;2022-08-19T00:30:26;6.78;;;6.07;;
53505;SDS011;39388;50.936;6.848;2022-08-19T00:32:59;6.95;;;6.10;;
53505;SDS011;39388;50.936;6.848;2022-08-19T00:35:30;7.60;;;6.20;;
53505;SDS011;39388;50.936;6.848;2022-08-19T00:38:00;8.00;;;6.10;;
53505;SDS011;39388;50.936;6.848;2022-08-19T00:40:31;7.60;;;6.85;;
53505;SDS011;39388;50.936;6.848;2022-08-19T00:43:07;7.05;;;6.43;;
53505;SDS011;39388;50.936;6.848;2022-08-19T00:45:39;6.85;;;6.15;;
53505;SDS011;39388;50.936;6.848;2022-08-19T00:48:11;6.88;;;6.25;;
53505;SDS011;39388;50.936;6.848;2022-08-19T00:50:43;7.50;;;6.70;;
53505;SDS011;39388;50.936;6.848;2022-08-19T00:53:15;7.80;;;7.00;;
53505;SDS011;39388;50.936;6.848;2022-08-19T00:55:49;8.02;;;6.50;;
53505;SDS011;39388;50.936;6.848;2022-08-19T00:58:24;7.72;;;6.82;;
53505;SDS011;39388;50.936;6.848;2022-08-19T01:00:57;10.15;;;6.72;;
53505;SDS011;39388;50.936;6.848;2022-08-19T01:03:27;7.72;;;6.95;;
53505;SDS011;39388;50.936;6.848;2022-08-19T01:05:58;8.13;;;7.28;;
53505;SDS011;39388;50.936;6.848;2022-08-19T01:08:30;9.27;;;6.93;;
53505;SDS011;39388;50.936;6.848;2022-08-19T01:11:00;7.43;;;6.60;;
53505;SDS011;39388;50.936;6.848;2022-08-19T01:13:31;9.23;;;7.10;;
53505;SDS011;39388;50.936;6.848;2022-08-19T01:16:05;8.88;;;7.45;;
53505;SDS011;39388;50.936;6.848;2022-08-19T01:18:39;7.88;;;6.95;;
53505;SDS011;39388;50.936;6.848;2022-08-19T01:21:14;7.70;;;6.78;;
53505;SDS011;39388;50.936;6.848;2022-08-19T01:23:56;7.93;;;6.97;;
53505;SDS011;39388;50.936;6.848;2022-08-19T01:26:27;12.23;;;7.35;;
53505;SDS011;39388;50.936;6.848;2022-08-19T01:28:58;8.38;;;7.15;;
53505;SDS011;39388;50.936;6.848;2022-08-19T01:31:30;8.35;;;7.15;;
53505;SDS011;39388;50.936;6.848;2022-08-19T01:34:01;8.63;;;7.60;;
53505;SDS011;39388;50.936;6.848;2022-08-19T01:36:42;8.52;;;7.57;;
53505;SDS011;39388;50.936;6.848;2022-08-19T01:39:16;10.38;;;7.70;;
53505;SDS011;39388;50.936;6.848;2022-08-19T01:41:49;11.90;;;8.23;;
53505;SDS011;39388;50.936;6.848;2022-08-19T01:44:22;9.65;;;8.50;;
53505;SDS011;39388;50.936;6.848;2022-08-19T01:46:54;9.40;;;8.00;;
53505;SDS011;39388;50.936;6.848;2022-08-19T01:49:25;9.70;;;8.55;;
53505;SDS011;39388;50.936;6.848;2022-08-19T01:51:56;9.45;;;8.52;;
53505;SDS011;39388;50.936;6.848;2022-08-19T01:54:29;9.20;;;7.97;;
53505;SDS011;39388;50.936;6.848;2022-08-19T01:57:01;10.40;;;8.23;;
53505;SDS011;39388;50.936;6.848;2022-08-19T01:59:34;8.80;;;7.90;;
53505;SDS011;39388;50.936;6.848;2022-08-19T02:02:06;9.93;;;7.93;;
53505;SDS011;39388;50.936;6.848;2022-08-19T02:04:40;10.40;;;8.25;;
53505;SDS011;39388;50.936;6.848;2022-08-19T02:07:10;11.45;;;8.80;;
53505;SDS011;39388;50.936;6.848;2022-08-19T02:09:41;10.70;;;8.45;;
53505;SDS011;39388;50.936;6.848;2022-08-19T02:12:11;9.50;;;8.05;;
53505;SDS011;39388;50.936;6.848;2022-08-19T02:14:42;10.95;;;7.80;;
53505;SDS011;39388;50.936;6.848;2022-08-19T02:17:12;13.43;;;8.00;;
53505;SDS011;39388;50.936;6.848;2022-08-19T02:19:43;10.73;;;7.43;;
53505;SDS011;39388;50.936;6.848;2022-08-19T02:22:13;9.05;;;8.05;;
53505;SDS011;39388;50.936;6.848;2022-08-19T02:24:44;10.98;;;7.57;;
53505;SDS011;39388;50.936;6.848;2022-08-19T02:27:14;9.30;;;7.75;;
53505;SDS011;39388;50.936;6.848;2022-08-19T02:29:45;9.18;;;8.27;;
53505;SDS011;39388;50.936;6.848;2022-08-19T02:32:17;8.55;;;7.57;;
53505;SDS011;39388;50.936;6.848;2022-08-19T02:34:51;12.80;;;8.50;;
53505;SDS011;39388;50.936;6.848;2022-08-19T02:37:22;10.63;;;8.60;;
53505;SDS011;39388;50.936;6.848;2022-08-19T02:40:11;9.27;;;8.10;;
53505;SDS011;39388;50.936;6.848;2022-08-19T02:42:42;13.38;;;8.18;;
53505;SDS011;39388;50.936;6.848;2022-08-19T02:45:13;10.15;;;8.50;;
53505;SDS011;39388;50.936;6.848;2022-08-19T02:47:44;10.93;;;8.65;;
53505;SDS011;39388;50.936;6.848;2022-08-19T02:50:14;11.98;;;8.55;;
53505;SDS011;39388;50.936;6.848;2022-08-19T02:52:45;11.10;;;7.85;;
53505;SDS011;39388;50.936;6.848;2022-08-19T02:55:15;11.25;;;9.10;;
53505;SDS011;39388;50.936;6.848;2022-08-19T02:57:46;10.70;;;9.05;;
53505;SDS011;39388;50.936;6.848;2022-08-19T03:00:17;9.50;;;7.85;;
53505;SDS011;39388;50.936;6.848;2022-08-19T03:02:47;11.48;;;8.57;;
53505;SDS011;39388;50.936;6.848;2022-08-19T03:05:18;11.05;;;8.85;;
53505;SDS011;39388;50.936;6.848;2022-08-19T03:07:49;11.35;;;9.07;;
53505;SDS011;39388;50.936;6.848;2022-08-19T03:10:19;9.55;;;8.23;;
53505;SDS011;39388;50.936;6.848;2022-08-19T03:12:50;12.80;;;9.32;;
53505;SDS011;39388;50.936;6.848;2022-08-19T03:15:20;10.85;;;9.43;;
53505;SDS011;39388;50.936;6.848;2022-08-19T03:17:51;10.73;;;9.23;;
53505;SDS011;39388;50.936;6.848;2022-08-19T03:20:21;10.88;;;9.02;;
53505;SDS011;39388;50.936;6.848;2022-08-19T03:22:51;11.80;;;9.05;;
53505;SDS011;39388;50.936;6.848;2022-08-19T03:25:22;9.85;;;8.85;;
53505;SDS011;39388;50.936;6.848;2022-08-19T03:27:52;14.82;;;9.93;;
53505;SDS011;39388;50.936;6.848;2022-08-19T03:30:22;13.30;;;9.52;;
53505;SDS011;39388;50.936;6.848;2022-08-19T03:32:53;12.40;;;8.93;;
53505;SDS011;39388;50.936;6.848;2022-08-19T03:35:23;12.02;;;8.65;;
53505;SDS011;39388;50.936;6.848;2022-08-19T03:37:54;13.57;;;8.68;;
53505;SDS011;39388;50.936;6.848;2022-08-19T03:40:26;10.77;;;8.68;;
53505;SDS011;39388;50.936;6.848;2022-08-19T03:42:56;9.93;;;8.48;;
53505;SDS011;39388;50.936;6.848;2022-08-19T03:45:27;10.85;;;8.80;;
53505;SDS011;39388;50.936;6.848;2022-08-19T03:47:57;11.18;;;8.85;;
53505;SDS011;39388;50.936;6.848;2022-08-19T03:50:27;9.48;;;8.50;;
53505;SDS011;39388;50.936;6.848;2022-08-19T03:52:58;11.90;;;8.75;;
53505;SDS011;39388;50.936;6.848;2022-08-19T03:55:29;9.93;;;8.07;;
53505;SDS011;39388;50.936;6.848;2022-08-19T03:58:00;9.70;;;8.57;;
53505;SDS011;39388;50.936;6.848;2022-08-19T04:00:31;10.50;;;8.02;;
53505;SDS011;39388;50.936;6.848;2022-08-19T04:03:02;11.65;;;8.20;;
53505;SDS011;39388;50.936;6.848;2022-08-19T04:05:32;10.70;;;7.82;;
53505;SDS011;39388;50.936;6.848;2022-08-19T04:08:03;10.98;;;8.43;;
53505;SDS011;39388;50.936;6.848;2022-08-19T04:13:06;10.40;;;8.32;;
53505;SDS011;39388;50.936;6.848;2022-08-19T04:15:40;13.30;;;10.73;;
53505;SDS011;39388;50.936;6.848;2022-08-19T04:18:12;12.00;;;9.50;;
53505;SDS011;39388;50.936;6.848;2022-08-19T04:20:44;16.10;;;13.00;;
53505;SDS011;39388;50.936;6.848;2022-08-19T04:23:16;14.95;;;11.13;;
53505;SDS011;39388;50.936;6.848;2022-08-19T04:25:48;16.70;;;12.43;;
53505;SDS011;39388;50.936;6.848;2022-08-19T04:28:19;14.10;;;11.98;;
53505;SDS011;39388;50.936;6.848;2022-08-19T04:30:52;13.20;;;11.70;;
53505;SDS011;39388;50.936;6.848;2022-08-19T04:33:24;16.25;;;12.15;;
53505;SDS011;39388;50.936;6.848;2022-08-19T04:35:55;13.93;;;11.00;;
53505;SDS011;39388;50.936;6.848;2022-08-19T04:38:28;13.57;;;12.18;;
53505;SDS011;39388;50.936;6.848;2022-08-19T04:40:58;15.43;;;11.98;;
53505;SDS011;39388;50.936;6.848;2022-08-19T04:43:47;14.27;;;11.05;;
53505;SDS011;39388;50.936;6.848;2022-08-19T04:46:18;13.25;;;11.30;;
53505;SDS011;39388;50.936;6.848;2022-08-19T04:48:49;15.75;;;12.48;;
53505;SDS011;39388;50.936;6.848;2022-08-19T04:51:20;15.13;;;12.82;;
53505;SDS011;39388;50.936;6.848;2022-08-19T04:53:51;19.48;;;15.30;;
53505;SDS011;39388;50.936;6.848;2022-08-19T04:56:22;19.80;;;14.93;;
53505;SDS011;39388;50.936;6.848;2022-08-19T04:58:56;22.23;;;16.70;;
53505;SDS011;39388;50.936;6.848;2022-08-19T05:01:27;18.05;;;15.65;;
53505;SDS011;39388;50.936;6.848;2022-08-19T05:04:00;25.20;;;18.38;;
53505;SDS011;39388;50.936;6.848;2022-08-19T05:06:32;27.08;;;21.83;;
53505;SDS011;39388;50.936;6.848;2022-08-19T05:09:04;25.67;;;20.98;;
53505;SDS011;39388;50.936;6.848;2022-08-19T05:11:35;26.17;;;20.57;;
53505;SDS011;39388;50.936;6.848;2022-08-19T05:14:10;27.48;;;21.83;;
53505;SDS011;39388;50.936;6.848;2022-08-19T05:16:42;28.17;;;21.60;;
53505;SDS011;39388;50.936;6.848;2022-08-19T05:19:12;28.85;;;22.65;;
53505;SDS011;39388;50.936;6.848;2022-08-19T05:22:02;30.73;;;22.65;;
53505;SDS011;39388;50.936;6.848;2022-08-19T05:24:51;27.75;;;22.67;;
53505;SDS011;39388;50.936;6.848;2022-08-19T05:27:21;26.15;;;21.92;;
53505;SDS011;39388;50.936;6.848;2022-08-19T05:29:52;25.40;;;19.83;;
53505;SDS011;39388;50.936;6.848;2022-08-19T05:32:22;26.00;;;21.45;;
53505;SDS011;39388;50.936;6.848;2022-08-19T05:34:53;26.83;;;21.92;;
53505;SDS011;39388;50.936;6.848;2022-08-19T05:37:24;28.40;;;22.65;;
53505;SDS011;39388;50.936;6.848;2022-08-19T05:39:56;27.73;;;20.80;;
53505;SDS011;39388;50.936;6.848;2022-08-19T05:42:27;27.02;;;20.67;;
53505;SDS011;39388;50.936;6.848;2022-08-19T05:44:57;26.35;;;21.17;;
53505;SDS011;39388;50.936;6.848;2022-08-19T05:47:28;27.15;;;21.48;;
53505;SDS011;39388;50.936;6.848;2022-08-19T05:49:58;27.58;;;22.00;;
53505;SDS011;39388;50.936;6.848;2022-08-19T05:52:29;26.55;;;21.60;;
53505;SDS011;39388;50.936;6.848;2022-08-19T05:55:00;28.38;;;21.65;;
53505;SDS011;39388;50.936;6.848;2022-08-19T05:57:30;28.13;;;22.52;;
53505;SDS011;39388;50.936;6.848;2022-08-19T06:00:01;29.50;;;21.80;;
53505;SDS011;39388;50.936;6.848;2022-08-19T06:02:32;26.35;;;21.00;;
53505;SDS011;39388;50.936;6.848;2022-08-19T06:05:04;26.80;;;22.13;;
53505;SDS011;39388;50.936;6.848;2022-08-19T06:07:38;25.35;;;22.42;;
53505;SDS011;39388;50.936;6.848;2022-08-19T06:10:10;33.20;;;23.30;;
53505;SDS011;39388;50.936;6.848;2022-08-19T06:12:41;29.02;;;22.73;;
53505;SDS011;39388;50.936;6.848;2022-08-19T06:15:12;26.05;;;21.10;;
53505;SDS011;39388;50.936;6.848;2022-08-19T06:20:14;29.48;;;21.45;;
53505;SDS011;39388;50.936;6.848;2022-08-19T06:22:45;28.67;;;20.83;;
53505;SDS011;39388;50.936;6.848;2022-08-19T06:25:19;28.92;;;22.20;;
53505;SDS011;39388;50.936;6.848;2022-08-19T06:27:50;23.85;;;20.10;;
53505;SDS011;39388;50.936;6.848;2022-08-19T06:30:20;25.90;;;21.27;;
53505;SDS011;39388;50.936;6.848;2022-08-19T06:32:51;28.50;;;22.27;;
53505;SDS011;39388;50.936;6.848;2022-08-19T06:35:21;24.88;;;20.58;;
53505;SDS011;39388;50.936;6.848;2022-08-19T06:37:51;26.48;;;20.17;;
53505;SDS011;39388;50.936;6.848;2022-08-19T06:40:22;26.90;;;20.42;;
53505;SDS011;39388;50.936;6.848;2022-08-19T06:42:53;25.25;;;20.23;;
53505;SDS011;39388;50.936;6.848;2022-08-19T06:45:23;23.67;;;18.33;;
53505;SDS011;39388;50.936;6.848;2022-08-19T06:47:54;23.90;;;19.35;;
53505;SDS011;39388;50.936;6.848;2022-08-19T06:50:25;25.60;;;20.33;;
53505;SDS011;39388;50.936;6.848;2022-08-19T06:52:56;25.38;;;19.50;;
53505;SDS011;39388;50.936;6.848;2022-08-19T06:55:26;27.17;;;20.17;;
53505;SDS011;39388;50.936;6.848;2022-08-19T06:58:01;27.58;;;21.48;;
53505;SDS011;39388;50.936;6.848;2022-08-19T07:00:33;26.85;;;21.02;;
53505;SDS011;39388;50.936;6.848;2022-08-19T07:03:04;30.08;;;21.77;;
53505;SDS011;39388;50.936;6.848;2022-08-19T07:05:38;26.30;;;19.60;;
53505;SDS011;39388;50.936;6.848;2022-08-19T07:08:10;31.23;;;23.83;;
53505;SDS011;39388;50.936;6.848;2022-08-19T07:10:44;29.38;;;20.15;;
53505;SDS011;39388;50.936;6.848;2022-08-19T07:13:15;29.15;;;22.55;;
53505;SDS011;39388;50.936;6.848;2022-08-19T07:15:45;30.00;;;23.85;;
53505;SDS011;39388;50.936;6.848;2022-08-19T07:18:18;28.38;;;21.27;;
53505;SDS011;39388;50.936;6.848;2022-08-19T07:20:50;30.02;;;23.05;;
53505;SDS011;39388;50.936;6.848;2022-08-19T07:23:20;31.38;;;23.17;;
53505;SDS011;39388;50.936;6.848;2022-08-19T07:25:51;29.13;;;21.92;;
53505;SDS011;39388;50.936;6.848;2022-08-19T07:28:21;30.23;;;22.70;;
53505;SDS011;39388;50.936;6.848;2022-08-19T07:30:52;30.92;;;23.52;;
53505;SDS011;39388;50.936;6.848;2022-08-19T07:33:23;31.05;;;23.65;;
53505;SDS011;39388;50.936;6.848;2022-08-19T07:35:53;38.30;;;24.45;;
53505;SDS011;39388;50.936;6.848;2022-08-19T07:38:24;33.33;;;24.50;;
53505;SDS011;39388;50.936;6.848;2022-08-19T07:40:54;35.35;;;24.77;;
53505;SDS011;39388;50.936;6.848;2022-08-19T07:43:25;31.58;;;23.45;;
53505;SDS011;39388;50.936;6.848;2022-08-19T07:45:56;31.27;;;23.53;;
53505;SDS011;39388;50.936;6.848;2022-08-19T07:48:27;31.83;;;23.45;;
53505;SDS011;39388;50.936;6.848;2022-08-19T07:51:00;31.08;;;23.45;;
53505;SDS011;39388;50.936;6.848;2022-08-19T07:53:32;35.58;;;25.98;;
53505;SDS011;39388;50.936;6.848;2022-08-19T07:56:05;36.30;;;25.95;;
53505;SDS011;39388;50.936;6.848;2022-08-19T07:58:37;33.53;;;25.83;;
53505;SDS011;39388;50.936;6.848;2022-08-19T08:01:13;34.50;;;23.80;;
53505;SDS011;39388;50.936;6.848;2022-08-19T08:03:45;37.42;;;26.13;;
53505;SDS011;39388;50.936;6.848;2022-08-19T08:06:35;39.22;;;25.48;;
53505;SDS011;39388;50.936;6.848;2022-08-19T08:09:29;34.28;;;23.25;;
53505;SDS011;39388;50.936;6.848;2022-08-19T08:12:07;38.05;;;26.60;;
53505;SDS011;39388;50.936;6.848;2022-08-19T08:14:47;37.10;;;25.33;;
53505;SDS011;39388;50.936;6.848;2022-08-19T08:17:21;32.58;;;23.25;;
53505;SDS011;39388;50.936;6.848;2022-08-19T08:19:53;33.58;;;23.83;;
53505;SDS011;39388;50.936;6.848;2022-08-19T08:22:24;35.00;;;23.83;;
53505;SDS011;39388;50.936;6.848;2022-08-19T08:25:15;31.55;;;23.60;;
53505;SDS011;39388;50.936;6.848;2022-08-19T08:27:49;37.50;;;24.17;;
53505;SDS011;39388;50.936;6.848;2022-08-19T08:30:21;27.63;;;20.55;;
53505;SDS011;39388;50.936;6.848;2022-08-19T08:32:53;31.60;;;23.13;;
53505;SDS011;39388;50.936;6.848;2022-08-19T08:35:24;33.38;;;23.35;;
53505;SDS011;39388;50.936;6.848;2022-08-19T08:37:55;33.45;;;24.85;;
53505;SDS011;39388;50.936;6.848;2022-08-19T08:43:19;31.67;;;23.23;;
53505;SDS011;39388;50.936;6.848;2022-08-19T08:46:06;32.63;;;23.75;;
53505;SDS011;39388;50.936;6.848;2022-08-19T08:48:41;32.67;;;23.27;;
53505;SDS011;39388;50.936;6.848;2022-08-19T08:51:24;34.00;;;24.42;;
53505;SDS011;39388;50.936;6.848;2022-08-19T08:54:07;34.50;;;24.75;;
53505;SDS011;39388;50.936;6.848;2022-08-19T08:56:42;35.95;;;26.08;;
53505;SDS011;39388;50.936;6.848;2022-08-19T09:02:02;28.00;;;21.85;;
53505;SDS011;39388;50.936;6.848;2022-08-19T09:04:36;26.75;;;19.92;;
53505;SDS011;39388;50.936;6.848;2022-08-19T09:08:10;26.35;;;19.45;;
53505;SDS011;39388;50.936;6.848;2022-08-19T09:10:31;23.95;;;18.48;;
53505;SDS011;39388;50.936;6.848;2022-08-19T09:15:57;25.33;;;19.10;;
53505;SDS011;39388;50.936;6.848;2022-08-19T09:18:42;23.10;;;18.30;;
53505;SDS011;39388;50.936;6.848;2022-08-19T09:21:14;25.38;;;20.48;;
53505;SDS011;39388;50.936;6.848;2022-08-19T09:23:45;22.88;;;18.83;;
53505;SDS011;39388;50.936;6.848;2022-08-19T09:26:16;21.58;;;16.60;;
53505;SDS011;39388;50.936;6.848;2022-08-19T09:28:50;20.85;;;17.08;;
53505;SDS011;39388;50.936;6.848;2022-08-19T09:31:23;20.40;;;16.85;;
53505;SDS011;39388;50.936;6.848;2022-08-19T09:33:56;19.13;;;15.55;;
53505;SDS011;39388;50.936;6.848;2022-08-19T09:36:28;17.08;;;13.27;;
53505;SDS011;39388;50.936;6.848;2022-08-19T09:38:59;20.95;;;15.57;;
53505;SDS011;39388;50.936;6.848;2022-08-19T09:41:30;18.38;;;13.68;;
53505;SDS011;39388;50.936;6.848;2022-08-19T09:44:00;19.60;;;15.23;;
53505;SDS011;39388;50.936;6.848;2022-08-19T09:46:31;16.13;;;13.98;;
53505;SDS011;39388;50.936;6.848;2022-08-19T09:49:01;14.18;;;12.07;;
53505;SDS011;39388;50.936;6.848;2022-08-19T09:51:35;14.98;;;12.43;;
53505;SDS011;39388;50.936;6.848;2022-08-19T09:54:05;13.55;;;11.40;;
53505;SDS011;39388;50.936;6.848;2022-08-19T09:56:36;16.33;;;11.95;;
53505;SDS011;39388;50.936;6.848;2022-08-19T09:59:06;13.60;;;11.55;;
53505;SDS011;39388;50.936;6.848;2022-08-19T10:01:37;10.93;;;8.52;;
53505;SDS011;39388;50.936;6.848;2022-08-19T10:04:08;9.30;;;7.78;;
53505;SDS011;39388;50.936;6.848;2022-08-19T10:06:38;11.07;;;8.85;;
53505;SDS011;39388;50.936;6.848;2022-08-19T10:09:10;12.23;;;9.15;;
53505;SDS011;39388;50.936;6.848;2022-08-19T10:11:41;11.45;;;9.90;;
53505;SDS011;39388;50.936;6.848;2022-08-19T10:14:13;11.07;;;9.43;;
53505;SDS011;39388;50.936;6.848;2022-08-19T10:16:44;10.63;;;8.25;;
53505;SDS011;39388;50.936;6.848;2022-08-19T10:19:15;11.70;;;8.73;;
53505;SDS011;39388;50.936;6.848;2022-08-19T10:21:45;13.20;;;9.50;;
53505;SDS011;39388;50.936;6.848;2022-08-19T10:24:15;13.20;;;9.65;;
53505;SDS011;39388;50.936;6.848;2022-08-19T10:26:46;12.38;;;9.07;;
53505;SDS011;39388;50.936;6.848;2022-08-19T10:29:18;9.90;;;8.45;;
53505;SDS011;39388;50.936;6.848;2022-08-19T10:31:48;12.07;;;9.10;;
53505;SDS011;39388;50.936;6.848;2022-08-19T10:34:19;9.63;;;7.82;;
53505;SDS011;39388;50.936;6.848;2022-08-19T10:36:49;14.82;;;10.75;;
53505;SDS011;39388;50.936;6.848;2022-08-19T10:39:20;16.80;;;12.93;;
53505;SDS011;39388;50.936;6.848;2022-08-19T10:41:50;13.05;;;10.60;;
53505;SDS011;39388;50.936;6.848;2022-08-19T10:44:21;12.38;;;10.50;;
53505;SDS011;39388;50.936;6.848;2022-08-19T10:49:23;11.90;;;10.37;;
53505;SDS011;39388;50.936;6.848;2022-08-19T10:51:54;14.57;;;11.68;;
53505;SDS011;39388;50.936;6.848;2022-08-19T10:54:44;13.70;;;10.80;;
53505;SDS011;39388;50.936;6.848;2022-08-19T10:57:32;13.52;;;11.30;;
53505;SDS011;39388;50.936;6.848;2022-08-19T11:00:03;11.37;;;9.80;;
53505;SDS011;39388;50.936;6.848;2022-08-19T11:02:34;14.73;;;9.83;;
53505;SDS011;39388;50.936;6.848;2022-08-19T11:05:05;11.17;;;9.40;;
53505;SDS011;39388;50.936;6.848;2022-08-19T11:10:08;11.07;;;9.73;;
53505;SDS011;39388;50.936;6.848;2022-08-19T11:12:39;11.65;;;9.02;;
53505;SDS011;39388;50.936;6.848;2022-08-19T11:15:10;10.10;;;8.83;;
53505;SDS011;39388;50.936;6.848;2022-08-19T11:17:41;10.43;;;8.57;;
53505;SDS011;39388;50.936;6.848;2022-08-19T11:20:14;11.27;;;8.65;;
53505;SDS011;39388;50.936;6.848;2022-08-19T11:22:44;11.63;;;8.30;;
53505;SDS011;39388;50.936;6.848;2022-08-19T11:25:15;10.05;;;8.10;;
53505;SDS011;39388;50.936;6.848;2022-08-19T11:27:45;9.93;;;8.73;;
53505;SDS011;39388;50.936;6.848;2022-08-19T11:30:16;9.13;;;7.85;;
53505;SDS011;39388;50.936;6.848;2022-08-19T11:32:46;12.65;;;9.10;;
53505;SDS011;39388;50.936;6.848;2022-08-19T11:35:17;9.63;;;8.63;;
53505;SDS011;39388;50.936;6.848;2022-08-19T11:37:49;10.95;;;8.77;;
53505;SDS011;39388;50.936;6.848;2022-08-19T11:40:19;9.37;;;7.90;;
53505;SDS011;39388;50.936;6.848;2022-08-19T11:42:50;9.87;;;8.20;;
53505;SDS011;39388;50.936;6.848;2022-08-19T11:45:27;10.23;;;8.63;;
53505;SDS011;39388;50.936;6.848;2022-08-19T11:47:59;9.90;;;8.07;;
53505;SDS011;39388;50.936;6.848;2022-08-19T11:50:29;11.50;;;7.83;;
53505;SDS011;39388;50.936;6.848;2022-08-19T11:52:59;8.67;;;7.43;;
53505;SDS011;39388;50.936;6.848;2022-08-19T11:55:30;11.10;;;7.20;;
53505;SDS011;39388;50.936;6.848;2022-08-19T11:58:00;8.27;;;6.97;;
53505;SDS011;39388;50.936;6.848;2022-08-19T12:00:31;8.37;;;7.40;;
53505;SDS011;39388;50.936;6.848;2022-08-19T12:03:03;6.95;;;6.03;;
53505;SDS011;39388;50.936;6.848;2022-08-19T12:05:36;7.93;;;6.60;;
53505;SDS011;39388;50.936;6.848;2022-08-19T12:08:07;7.07;;;6.00;;
53505;SDS011;39388;50.936;6.848;2022-08-19T12:10:38;7.68;;;6.13;;
53505;SDS011;39388;50.936;6.848;2022-08-19T12:13:12;6.35;;;5.70;;
53505;SDS011;39388;50.936;6.848;2022-08-19T12:15:48;8.70;;;7.55;;
53505;SDS011;39388;50.936;6.848;2022-08-19T12:18:18;9.83;;;7.73;;
53505;SDS011;39388;50.936;6.848;2022-08-19T12:20:50;8.93;;;7.10;;
53505;SDS011;39388;50.936;6.848;2022-08-19T12:23:21;8.48;;;7.25;;
53505;SDS011;39388;50.936;6.848;2022-08-19T12:25:52;8.93;;;7.33;;
53505;SDS011;39388;50.936;6.848;2022-08-19T12:28:23;8.17;;;6.77;;
53505;SDS011;39388;50.936;6.848;2022-08-19T12:33:25;8.20;;;6.30;;
53505;SDS011;39388;50.936;6.848;2022-08-19T12:36:02;7.13;;;6.28;;
53505;SDS011;39388;50.936;6.848;2022-08-19T12:38:34;8.77;;;6.43;;
53505;SDS011;39388;50.936;6.848;2022-08-19T12:41:06;8.10;;;6.57;;
53505;SDS011;39388;50.936;6.848;2022-08-19T12:43:38;7.53;;;6.20;;
53505;SDS011;39388;50.936;6.848;2022-08-19T12:46:10;8.47;;;6.97;;
53505;SDS011;39388;50.936;6.848;2022-08-19T12:51:12;8.77;;;7.18;;
53505;SDS011;39388;50.936;6.848;2022-08-19T12:53:46;9.32;;;7.40;;
53505;SDS011;39388;50.936;6.848;2022-08-19T12:56:17;8.52;;;7.18;;
53505;SDS011;39388;50.936;6.848;2022-08-19T12:58:49;8.23;;;6.68;;
53505;SDS011;39388;50.936;6.848;2022-08-19T13:01:19;6.53;;;5.57;;
53505;SDS011;39388;50.936;6.848;2022-08-19T13:03:50;6.70;;;4.40;;
53505;SDS011;39388;50.936;6.848;2022-08-19T13:06:24;7.38;;;5.20;;
53505;SDS011;39388;50.936;6.848;2022-08-19T13:08:54;7.87;;;5.70;;
53505;SDS011;39388;50.936;6.848;2022-08-19T13:11:25;6.20;;;4.80;;
53505;SDS011;39388;50.936;6.848;2022-08-19T13:13:56;7.37;;;5.17;;
53505;SDS011;39388;50.936;6.848;2022-08-19T13:16:26;10.17;;;5.37;;
53505;SDS011;39388;50.936;6.848;2022-08-19T13:18:57;5.65;;;4.75;;
53505;SDS011;39388;50.936;6.848;2022-08-19T13:21:28;5.97;;;5.30;;
53505;SDS011;39388;50.936;6.848;2022-08-19T13:23:59;7.65;;;4.60;;
53505;SDS011;39388;50.936;6.848;2022-08-19T13:26:30;6.00;;;4.50;;
53505;SDS011;39388;50.936;6.848;2022-08-19T13:29:00;7.23;;;5.43;;
53505;SDS011;39388;50.936;6.848;2022-08-19T13:31:49;7.18;;;5.82;;
53505;SDS011;39388;50.936;6.848;2022-08-19T13:34:38;6.68;;;5.30;;
53505;SDS011;39388;50.936;6.848;2022-08-19T13:37:09;7.10;;;5.05;;
53505;SDS011;39388;50.936;6.848;2022-08-19T13:39:39;5.93;;;4.87;;
53505;SDS011;39388;50.936;6.848;2022-08-19T13:42:10;6.93;;;5.63;;
53505;SDS011;39388;50.936;6.848;2022-08-19T13:44:40;7.00;;;5.73;;
53505;SDS011;39388;50.936;6.848;2022-08-19T13:47:11;9.30;;;5.87;;
53505;SDS011;39388;50.936;6.848;2022-08-19T13:49:43;7.95;;;5.22;;
53505;SDS011;39388;50.936;6.848;2022-08-19T13:52:14;6.47;;;4.87;;
53505;SDS011;39388;50.936;6.848;2022-08-19T13:54:44;7.23;;;5.00;;
53505;SDS011;39388;50.936;6.848;2022-08-19T13:57:14;6.73;;;5.10;;
53505;SDS011;39388;50.936;6.848;2022-08-19T13:59:45;6.27;;;5.20;;
53505;SDS011;39388;50.936;6.848;2022-08-19T14:02:15;6.90;;;5.63;;
53505;SDS011;39388;50.936;6.848;2022-08-19T14:04:46;6.40;;;4.87;;
53505;SDS011;39388;50.936;6.848;2022-08-19T14:07:16;8.97;;;5.07;;
53505;SDS011;39388;50.936;6.848;2022-08-19T14:09:46;7.47;;;5.03;;
53505;SDS011;39388;50.936;6.848;2022-08-19T14:12:20;8.27;;;5.10;;
53505;SDS011;39388;50.936;6.848;2022-08-19T14:14:50;6.38;;;4.45;;
53505;SDS011;39388;50.936;6.848;2022-08-19T14:17:21;5.90;;;5.20;;
53505;SDS011;39388;50.936;6.848;2022-08-19T14:19:58;6.50;;;4.73;;
53505;SDS011;39388;50.936;6.848;2022-08-19T14:22:37;8.73;;;4.93;;
53505;SDS011;39388;50.936;6.848;2022-08-19T14:25:11;5.90;;;5.00;;
53505;SDS011;39388;50.936;6.848;2022-08-19T14:27:44;4.88;;;4.32;;
53505;SDS011;39388;50.936;6.848;2022-08-19T14:30:21;6.07;;;4.82;;
53505;SDS011;39388;50.936;6.848;2022-08-19T14:32:55;4.57;;;3.45;;
53505;SDS011;39388;50.936;6.848;2022-08-19T14:35:28;5.93;;;3.17;;
53505;SDS011;39388;50.936;6.848;2022-08-19T14:37:59;7.88;;;3.53;;
53505;SDS011;39388;50.936;6.848;2022-08-19T14:40:31;4.03;;;3.60;;
53505;SDS011;39388;50.936;6.848;2022-08-19T14:43:03;4.60;;;3.67;;
53505;SDS011;39388;50.936;6.848;2022-08-19T14:45:35;6.15;;;3.40;;
53505;SDS011;39388;50.936;6.848;2022-08-19T14:48:08;4.97;;;3.25;;
53505;SDS011;39388;50.936;6.848;2022-08-19T14:50:39;7.40;;;3.03;;
53505;SDS011;39388;50.936;6.848;2022-08-19T14:53:09;5.77;;;2.97;;
53505;SDS011;39388;50.936;6.848;2022-08-19T14:55:40;4.37;;;2.93;;
53505;SDS011;39388;50.936;6.848;2022-08-19T14:58:15;3.45;;;2.90;;
53505;SDS011;39388;50.936;6.848;2022-08-19T15:00:46;4.13;;;2.53;;
53505;SDS011;39388;50.936;6.848;2022-08-19T15:03:16;3.87;;;2.90;;
53505;SDS011;39388;50.936;6.848;2022-08-19T15:05:47;4.47;;;2.70;;
53505;SDS011;39388;50.936;6.848;2022-08-19T15:08:17;4.17;;;2.50;;
53505;SDS011;39388;50.936;6.848;2022-08-19T15:10:47;3.57;;;2.40;;
53505;SDS011;39388;50.936;6.848;2022-08-19T15:13:18;3.37;;;2.43;;
53505;SDS011;39388;50.936;6.848;2022-08-19T15:15:49;2.90;;;2.43;;
53505;SDS011;39388;50.936;6.848;2022-08-19T15:18:19;4.53;;;2.47;;
53505;SDS011;39388;50.936;6.848;2022-08-19T15:20:50;3.33;;;2.27;;
53505;SDS011;39388;50.936;6.848;2022-08-19T15:23:21;3.07;;;2.40;;
53505;SDS011;39388;50.936;6.848;2022-08-19T15:25:51;3.20;;;2.27;;
53505;SDS011;39388;50.936;6.848;2022-08-19T15:28:25;3.17;;;2.30;;
53505;SDS011;39388;50.936;6.848;2022-08-19T15:30:55;2.60;;;2.17;;
53505;SDS011;39388;50.936;6.848;2022-08-19T15:33:26;3.03;;;2.50;;